sensor_id;sensor_type;location;lat;lon;timestamp;P1;durP1;ratioP1;P2;durP2;ratioP2
20080;SDS011;10200;49.232;9.222;2023-05-23T00:01:37;16.73;;;12.63;;
20080;SDS011;10200;49.232;9.222;2023-05-23T00:04:03;16.92;;;13.20;;
20080;SDS011;10200;49.232;9.222;2023-05-23T00:06:29;20.40;;;13.90;;
20080;SDS011;10200;49.232;9.222;2023-05-23T00:08:55;17.85;;;13.57;;
20080;SDS011;10200;49.232;9.222;2023-05-23T00:11:21;18.58;;;13.77;;
20080;SDS011;10200;49.232;9.222;2023-05-23T00:13:51;19.38;;;14.55;;
20080;SDS011;10200;49.232;9.222;2023-05-23T00:16:17;16.38;;;13.48;;
20080;SDS011;10200;49.232;9.222;2023-05-23T00:18:44;18.58;;;14.07;;
20080;SDS011;10200;49.232;9.222;2023-05-23T00:21:10;23.30;;;15.10;;
20080;SDS011;10200;49.232;9.222;2023-05-23T00:23:37;17.42;;;14.88;;
20080;SDS011;10200;49.232;9.222;2023-05-23T00:26:06;24.17;;;15.88;;
20080;SDS011;10200;49.232;9.222;2023-05-23T00:28:32;19.70;;;14.60;;
20080;SDS011;10200;49.232;9.222;2023-05-23T00:30:57;20.67;;;16.20;;
20080;SDS011;10200;49.232;9.222;2023-05-23T00:33:23;22.77;;;15.35;;
20080;SDS011;10200;49.232;9.222;2023-05-23T00:35:49;21.90;;;16.20;;
20080;SDS011;10200;49.232;9.222;2023-05-23T00:38:15;25.00;;;17.02;;
20080;SDS011;10200;49.232;9.222;2023-05-23T00:40:41;24.13;;;17.08;;
20080;SDS011;10200;49.232;9.222;2023-05-23T00:43:06;25.13;;;17.80;;
20080;SDS011;10200;49.232;9.222;2023-05-23T00:45:32;26.83;;;17.33;;
20080;SDS011;10200;49.232;9.222;2023-05-23T00:47:58;23.42;;;16.90;;
20080;SDS011;10200;49.232;9.222;2023-05-23T00:50:25;26.50;;;17.35;;
20080;SDS011;10200;49.232;9.222;2023-05-23T00:52:54;28.70;;;17.67;;
20080;SDS011;10200;49.232;9.222;2023-05-23T00:55:22;27.67;;;17.60;;
20080;SDS011;10200;49.232;9.222;2023-05-23T00:57:48;26.30;;;17.70;;
20080;SDS011;10200;49.232;9.222;2023-05-23T01:00:16;25.20;;;18.17;;
20080;SDS011;10200;49.232;9.222;2023-05-23T01:02:44;26.33;;;17.77;;
20080;SDS011;10200;49.232;9.222;2023-05-23T01:05:11;28.33;;;18.88;;
20080;SDS011;10200;49.232;9.222;2023-05-23T01:07:41;29.95;;;20.40;;
20080;SDS011;10200;49.232;9.222;2023-05-23T01:10:08;31.48;;;20.73;;
20080;SDS011;10200;49.232;9.222;2023-05-23T01:15:34;32.28;;;21.88;;
20080;SDS011;10200;49.232;9.222;2023-05-23T01:21:11;32.83;;;21.20;;
20080;SDS011;10200;49.232;9.222;2023-05-23T01:28:51;29.45;;;21.35;;
20080;SDS011;10200;49.232;9.222;2023-05-23T01:31:29;33.25;;;21.55;;
20080;SDS011;10200;49.232;9.222;2023-05-23T01:33:58;32.25;;;21.98;;
20080;SDS011;10200;49.232;9.222;2023-05-23T01:36:25;31.52;;;21.13;;
20080;SDS011;10200;49.232;9.222;2023-05-23T01:38:50;32.50;;;23.25;;
20080;SDS011;10200;49.232;9.222;2023-05-23T01:41:16;33.75;;;22.88;;
20080;SDS011;10200;49.232;9.222;2023-05-23T01:43:42;36.78;;;25.00;;
20080;SDS011;10200;49.232;9.222;2023-05-23T01:46:08;36.05;;;23.83;;
20080;SDS011;10200;49.232;9.222;2023-05-23T01:48:34;37.42;;;23.92;;
20080;SDS011;10200;49.232;9.222;2023-05-23T01:51:02;38.45;;;24.95;;
20080;SDS011;10200;49.232;9.222;2023-05-23T01:53:28;39.38;;;25.83;;
20080;SDS011;10200;49.232;9.222;2023-05-23T01:55:55;40.53;;;25.65;;
20080;SDS011;10200;49.232;9.222;2023-05-23T01:58:21;45.20;;;26.15;;
20080;SDS011;10200;49.232;9.222;2023-05-23T02:00:47;38.92;;;25.33;;
20080;SDS011;10200;49.232;9.222;2023-05-23T02:03:12;39.08;;;26.90;;
20080;SDS011;10200;49.232;9.222;2023-05-23T02:05:40;43.97;;;27.55;;
20080;SDS011;10200;49.232;9.222;2023-05-23T02:08:05;45.42;;;27.27;;
20080;SDS011;10200;49.232;9.222;2023-05-23T02:10:31;44.40;;;28.00;;
20080;SDS011;10200;49.232;9.222;2023-05-23T02:12:56;43.58;;;27.48;;
20080;SDS011;10200;49.232;9.222;2023-05-23T02:15:22;48.83;;;28.15;;
20080;SDS011;10200;49.232;9.222;2023-05-23T02:17:48;42.97;;;26.98;;
20080;SDS011;10200;49.232;9.222;2023-05-23T02:20:13;42.33;;;25.83;;
20080;SDS011;10200;49.232;9.222;2023-05-23T02:22:39;46.90;;;27.52;;
20080;SDS011;10200;49.232;9.222;2023-05-23T02:25:05;45.53;;;27.02;;
20080;SDS011;10200;49.232;9.222;2023-05-23T02:27:31;45.83;;;27.48;;
20080;SDS011;10200;49.232;9.222;2023-05-23T02:29:56;47.38;;;28.20;;
20080;SDS011;10200;49.232;9.222;2023-05-23T02:32:22;49.88;;;29.20;;
20080;SDS011;10200;49.232;9.222;2023-05-23T02:34:48;50.10;;;27.60;;
20080;SDS011;10200;49.232;9.222;2023-05-23T02:37:14;53.92;;;29.60;;
20080;SDS011;10200;49.232;9.222;2023-05-23T02:39:40;45.30;;;29.10;;
20080;SDS011;10200;49.232;9.222;2023-05-23T02:42:06;53.40;;;30.67;;
20080;SDS011;10200;49.232;9.222;2023-05-23T02:44:32;49.78;;;29.20;;
20080;SDS011;10200;49.232;9.222;2023-05-23T02:46:58;52.95;;;30.60;;
20080;SDS011;10200;49.232;9.222;2023-05-23T02:49:23;54.72;;;29.77;;
20080;SDS011;10200;49.232;9.222;2023-05-23T02:51:49;47.83;;;29.10;;
20080;SDS011;10200;49.232;9.222;2023-05-23T02:54:15;53.08;;;31.33;;
20080;SDS011;10200;49.232;9.222;2023-05-23T02:56:41;58.33;;;32.45;;
20080;SDS011;10200;49.232;9.222;2023-05-23T02:59:06;48.55;;;29.40;;
20080;SDS011;10200;49.232;9.222;2023-05-23T03:01:32;55.83;;;32.35;;
20080;SDS011;10200;49.232;9.222;2023-05-23T03:03:57;55.10;;;31.30;;
20080;SDS011;10200;49.232;9.222;2023-05-23T03:06:23;48.88;;;31.05;;
20080;SDS011;10200;49.232;9.222;2023-05-23T03:08:49;51.97;;;30.92;;
20080;SDS011;10200;49.232;9.222;2023-05-23T03:11:14;52.10;;;32.42;;
20080;SDS011;10200;49.232;9.222;2023-05-23T03:13:40;58.45;;;32.25;;
20080;SDS011;10200;49.232;9.222;2023-05-23T03:16:06;52.90;;;30.42;;
20080;SDS011;10200;49.232;9.222;2023-05-23T03:18:31;53.28;;;30.67;;
20080;SDS011;10200;49.232;9.222;2023-05-23T03:20:57;57.88;;;32.00;;
20080;SDS011;10200;49.232;9.222;2023-05-23T03:23:24;51.30;;;31.52;;
20080;SDS011;10200;49.232;9.222;2023-05-23T03:25:50;55.53;;;32.38;;
20080;SDS011;10200;49.232;9.222;2023-05-23T03:28:15;49.25;;;32.47;;
20080;SDS011;10200;49.232;9.222;2023-05-23T03:30:41;54.58;;;32.20;;
20080;SDS011;10200;49.232;9.222;2023-05-23T03:33:06;52.03;;;32.03;;
20080;SDS011;10200;49.232;9.222;2023-05-23T03:35:33;56.95;;;34.58;;
20080;SDS011;10200;49.232;9.222;2023-05-23T03:37:58;56.60;;;34.72;;
20080;SDS011;10200;49.232;9.222;2023-05-23T03:40:24;55.53;;;33.13;;
20080;SDS011;10200;49.232;9.222;2023-05-23T03:43:00;50.92;;;31.40;;
20080;SDS011;10200;49.232;9.222;2023-05-23T03:45:32;56.13;;;32.08;;
20080;SDS011;10200;49.232;9.222;2023-05-23T03:47:58;51.78;;;32.30;;
20080;SDS011;10200;49.232;9.222;2023-05-23T03:50:24;51.28;;;31.55;;
20080;SDS011;10200;49.232;9.222;2023-05-23T03:52:52;54.80;;;32.85;;
20080;SDS011;10200;49.232;9.222;2023-05-23T03:55:19;52.75;;;32.75;;
20080;SDS011;10200;49.232;9.222;2023-05-23T03:57:55;52.75;;;34.10;;
20080;SDS011;10200;49.232;9.222;2023-05-23T04:00:23;55.03;;;33.53;;
20080;SDS011;10200;49.232;9.222;2023-05-23T04:02:49;59.65;;;32.97;;
20080;SDS011;10200;49.232;9.222;2023-05-23T04:05:16;54.63;;;33.03;;
20080;SDS011;10200;49.232;9.222;2023-05-23T04:07:41;55.08;;;33.78;;
20080;SDS011;10200;49.232;9.222;2023-05-23T04:10:08;53.22;;;33.38;;
20080;SDS011;10200;49.232;9.222;2023-05-23T04:12:36;55.95;;;33.33;;
20080;SDS011;10200;49.232;9.222;2023-05-23T04:15:02;55.47;;;33.40;;
20080;SDS011;10200;49.232;9.222;2023-05-23T04:17:29;52.17;;;31.83;;
20080;SDS011;10200;49.232;9.222;2023-05-23T04:19:55;55.97;;;33.67;;
20080;SDS011;10200;49.232;9.222;2023-05-23T04:22:22;54.90;;;32.50;;
20080;SDS011;10200;49.232;9.222;2023-05-23T04:24:48;50.83;;;31.95;;
20080;SDS011;10200;49.232;9.222;2023-05-23T04:27:13;49.90;;;31.02;;
20080;SDS011;10200;49.232;9.222;2023-05-23T04:29:39;47.40;;;29.60;;
20080;SDS011;10200;49.232;9.222;2023-05-23T04:32:05;48.70;;;32.50;;
20080;SDS011;10200;49.232;9.222;2023-05-23T04:34:33;56.10;;;33.50;;
20080;SDS011;10200;49.232;9.222;2023-05-23T04:36:59;54.47;;;31.48;;
20080;SDS011;10200;49.232;9.222;2023-05-23T04:39:28;52.28;;;30.50;;
20080;SDS011;10200;49.232;9.222;2023-05-23T04:41:54;52.08;;;32.45;;
20080;SDS011;10200;49.232;9.222;2023-05-23T04:44:20;43.92;;;29.45;;
20080;SDS011;10200;49.232;9.222;2023-05-23T04:46:46;49.63;;;30.67;;
20080;SDS011;10200;49.232;9.222;2023-05-23T04:49:12;51.55;;;32.33;;
20080;SDS011;10200;49.232;9.222;2023-05-23T04:51:38;54.13;;;31.65;;
20080;SDS011;10200;49.232;9.222;2023-05-23T04:54:04;48.15;;;29.58;;
20080;SDS011;10200;49.232;9.222;2023-05-23T04:56:29;39.42;;;28.15;;
20080;SDS011;10200;49.232;9.222;2023-05-23T04:58:55;51.33;;;29.95;;
20080;SDS011;10200;49.232;9.222;2023-05-23T05:01:21;47.22;;;28.73;;
20080;SDS011;10200;49.232;9.222;2023-05-23T05:03:50;39.60;;;27.00;;
20080;SDS011;10200;49.232;9.222;2023-05-23T05:06:16;45.60;;;28.10;;
20080;SDS011;10200;49.232;9.222;2023-05-23T05:08:42;42.22;;;28.08;;
20080;SDS011;10200;49.232;9.222;2023-05-23T05:11:08;40.88;;;26.60;;
20080;SDS011;10200;49.232;9.222;2023-05-23T05:13:34;44.80;;;27.67;;
20080;SDS011;10200;49.232;9.222;2023-05-23T05:16:00;40.42;;;26.80;;
20080;SDS011;10200;49.232;9.222;2023-05-23T05:18:27;38.88;;;26.73;;
20080;SDS011;10200;49.232;9.222;2023-05-23T05:20:53;42.42;;;26.60;;
20080;SDS011;10200;49.232;9.222;2023-05-23T05:23:19;40.17;;;26.38;;
20080;SDS011;10200;49.232;9.222;2023-05-23T05:25:44;34.85;;;24.63;;
20080;SDS011;10200;49.232;9.222;2023-05-23T05:28:11;36.80;;;24.15;;
20080;SDS011;10200;49.232;9.222;2023-05-23T05:30:37;31.42;;;23.15;;
20080;SDS011;10200;49.232;9.222;2023-05-23T05:33:03;40.75;;;24.75;;
20080;SDS011;10200;49.232;9.222;2023-05-23T05:35:33;31.08;;;23.15;;
20080;SDS011;10200;49.232;9.222;2023-05-23T05:37:59;32.95;;;23.55;;
20080;SDS011;10200;49.232;9.222;2023-05-23T05:40:26;33.45;;;22.80;;
20080;SDS011;10200;49.232;9.222;2023-05-23T05:42:52;32.53;;;23.67;;
20080;SDS011;10200;49.232;9.222;2023-05-23T05:45:18;36.22;;;24.48;;
20080;SDS011;10200;49.232;9.222;2023-05-23T05:47:44;30.95;;;23.48;;
20080;SDS011;10200;49.232;9.222;2023-05-23T05:50:10;33.38;;;22.98;;
20080;SDS011;10200;49.232;9.222;2023-05-23T05:52:36;32.20;;;23.02;;
20080;SDS011;10200;49.232;9.222;2023-05-23T05:55:07;32.13;;;23.50;;
20080;SDS011;10200;49.232;9.222;2023-05-23T05:57:37;30.80;;;23.00;;
20080;SDS011;10200;49.232;9.222;2023-05-23T06:00:10;31.50;;;22.30;;
20080;SDS011;10200;49.232;9.222;2023-05-23T06:02:39;33.90;;;22.38;;
20080;SDS011;10200;49.232;9.222;2023-05-23T06:05:07;29.73;;;21.63;;
20080;SDS011;10200;49.232;9.222;2023-05-23T06:07:36;32.85;;;21.23;;
20080;SDS011;10200;49.232;9.222;2023-05-23T06:10:02;25.55;;;20.67;;
20080;SDS011;10200;49.232;9.222;2023-05-23T06:12:28;26.73;;;20.02;;
20080;SDS011;10200;49.232;9.222;2023-05-23T06:14:54;24.40;;;18.95;;
20080;SDS011;10200;49.232;9.222;2023-05-23T06:17:19;30.30;;;19.67;;
20080;SDS011;10200;49.232;9.222;2023-05-23T06:19:45;23.00;;;18.05;;
20080;SDS011;10200;49.232;9.222;2023-05-23T06:22:10;30.58;;;19.27;;
20080;SDS011;10200;49.232;9.222;2023-05-23T06:24:36;27.42;;;17.95;;
20080;SDS011;10200;49.232;9.222;2023-05-23T06:27:02;27.08;;;19.63;;
20080;SDS011;10200;49.232;9.222;2023-05-23T06:29:27;21.88;;;17.63;;
20080;SDS011;10200;49.232;9.222;2023-05-23T06:31:55;20.55;;;16.08;;
20080;SDS011;10200;49.232;9.222;2023-05-23T06:34:20;21.63;;;15.90;;
20080;SDS011;10200;49.232;9.222;2023-05-23T06:36:46;22.67;;;17.38;;
20080;SDS011;10200;49.232;9.222;2023-05-23T06:39:12;20.65;;;15.13;;
20080;SDS011;10200;49.232;9.222;2023-05-23T06:41:38;17.85;;;14.20;;
20080;SDS011;10200;49.232;9.222;2023-05-23T06:44:04;19.63;;;14.40;;
20080;SDS011;10200;49.232;9.222;2023-05-23T06:46:30;18.98;;;13.95;;
20080;SDS011;10200;49.232;9.222;2023-05-23T06:48:55;16.17;;;12.25;;
20080;SDS011;10200;49.232;9.222;2023-05-23T06:51:21;13.80;;;11.55;;
20080;SDS011;10200;49.232;9.222;2023-05-23T06:53:46;15.63;;;12.18;;
20080;SDS011;10200;49.232;9.222;2023-05-23T06:56:12;18.63;;;13.75;;
20080;SDS011;10200;49.232;9.222;2023-05-23T06:58:38;20.55;;;14.63;;
20080;SDS011;10200;49.232;9.222;2023-05-23T07:01:04;16.23;;;14.02;;
20080;SDS011;10200;49.232;9.222;2023-05-23T07:03:30;18.05;;;13.88;;
20080;SDS011;10200;49.232;9.222;2023-05-23T07:05:55;15.10;;;13.38;;
20080;SDS011;10200;49.232;9.222;2023-05-23T07:08:21;15.80;;;11.80;;
20080;SDS011;10200;49.232;9.222;2023-05-23T07:10:47;16.50;;;11.35;;
20080;SDS011;10200;49.232;9.222;2023-05-23T07:13:12;13.82;;;11.57;;
20080;SDS011;10200;49.232;9.222;2023-05-23T07:15:38;17.88;;;12.38;;
20080;SDS011;10200;49.232;9.222;2023-05-23T07:18:03;14.35;;;11.73;;
20080;SDS011;10200;49.232;9.222;2023-05-23T07:20:31;12.30;;;9.55;;
20080;SDS011;10200;49.232;9.222;2023-05-23T07:22:57;13.20;;;9.85;;
20080;SDS011;10200;49.232;9.222;2023-05-23T07:25:22;9.38;;;8.35;;
20080;SDS011;10200;49.232;9.222;2023-05-23T07:27:48;10.60;;;8.60;;
20080;SDS011;10200;49.232;9.222;2023-05-23T07:30:14;10.48;;;8.77;;
20080;SDS011;10200;49.232;9.222;2023-05-23T07:32:40;11.57;;;7.72;;
20080;SDS011;10200;49.232;9.222;2023-05-23T07:35:06;9.77;;;8.13;;
20080;SDS011;10200;49.232;9.222;2023-05-23T07:37:32;9.75;;;8.07;;
20080;SDS011;10200;49.232;9.222;2023-05-23T07:39:57;11.65;;;9.20;;
20080;SDS011;10200;49.232;9.222;2023-05-23T07:42:23;8.77;;;7.88;;
20080;SDS011;10200;49.232;9.222;2023-05-23T07:44:48;9.13;;;8.07;;
20080;SDS011;10200;49.232;9.222;2023-05-23T07:47:14;10.60;;;7.93;;
20080;SDS011;10200;49.232;9.222;2023-05-23T07:49:40;9.15;;;7.93;;
20080;SDS011;10200;49.232;9.222;2023-05-23T07:52:05;11.63;;;8.50;;
20080;SDS011;10200;49.232;9.222;2023-05-23T07:54:31;10.73;;;9.18;;
20080;SDS011;10200;49.232;9.222;2023-05-23T07:56:57;12.73;;;9.00;;
20080;SDS011;10200;49.232;9.222;2023-05-23T07:59:22;9.90;;;8.90;;
20080;SDS011;10200;49.232;9.222;2023-05-23T08:01:48;10.55;;;8.82;;
20080;SDS011;10200;49.232;9.222;2023-05-23T08:04:16;10.80;;;9.52;;
20080;SDS011;10200;49.232;9.222;2023-05-23T08:06:42;10.98;;;9.07;;
20080;SDS011;10200;49.232;9.222;2023-05-23T08:09:11;13.13;;;9.73;;
20080;SDS011;10200;49.232;9.222;2023-05-23T08:11:36;11.27;;;9.43;;
20080;SDS011;10200;49.232;9.222;2023-05-23T08:14:02;10.07;;;9.07;;
20080;SDS011;10200;49.232;9.222;2023-05-23T08:16:28;11.18;;;9.73;;
20080;SDS011;10200;49.232;9.222;2023-05-23T08:18:53;11.40;;;9.32;;
20080;SDS011;10200;49.232;9.222;2023-05-23T08:21:19;11.45;;;9.38;;
20080;SDS011;10200;49.232;9.222;2023-05-23T08:23:44;13.50;;;10.27;;
20080;SDS011;10200;49.232;9.222;2023-05-23T08:26:10;11.65;;;9.57;;
20080;SDS011;10200;49.232;9.222;2023-05-23T08:28:36;11.18;;;9.88;;
20080;SDS011;10200;49.232;9.222;2023-05-23T08:31:01;12.48;;;9.85;;
20080;SDS011;10200;49.232;9.222;2023-05-23T08:33:28;12.40;;;10.48;;
20080;SDS011;10200;49.232;9.222;2023-05-23T08:35:54;11.73;;;10.32;;
20080;SDS011;10200;49.232;9.222;2023-05-23T08:38:20;11.30;;;10.10;;
20080;SDS011;10200;49.232;9.222;2023-05-23T08:40:49;13.40;;;11.25;;
20080;SDS011;10200;49.232;9.222;2023-05-23T08:43:18;13.68;;;10.57;;
20080;SDS011;10200;49.232;9.222;2023-05-23T08:45:44;13.35;;;11.27;;
20080;SDS011;10200;49.232;9.222;2023-05-23T08:48:11;12.55;;;10.82;;
20080;SDS011;10200;49.232;9.222;2023-05-23T08:50:39;12.07;;;10.40;;
20080;SDS011;10200;49.232;9.222;2023-05-23T08:53:08;13.15;;;11.23;;
20080;SDS011;10200;49.232;9.222;2023-05-23T08:55:35;12.80;;;9.90;;
20080;SDS011;10200;49.232;9.222;2023-05-23T08:58:02;13.45;;;10.57;;
20080;SDS011;10200;49.232;9.222;2023-05-23T09:00:28;13.00;;;10.82;;
20080;SDS011;10200;49.232;9.222;2023-05-23T09:02:54;11.50;;;9.63;;
20080;SDS011;10200;49.232;9.222;2023-05-23T09:05:21;16.23;;;9.50;;
20080;SDS011;10200;49.232;9.222;2023-05-23T09:07:47;11.60;;;10.27;;
20080;SDS011;10200;49.232;9.222;2023-05-23T09:10:13;11.15;;;9.88;;
20080;SDS011;10200;49.232;9.222;2023-05-23T09:12:45;11.23;;;9.05;;
20080;SDS011;10200;49.232;9.222;2023-05-23T09:15:13;9.77;;;8.32;;
20080;SDS011;10200;49.232;9.222;2023-05-23T09:17:39;12.75;;;8.00;;
20080;SDS011;10200;49.232;9.222;2023-05-23T09:20:14;10.07;;;8.02;;
20080;SDS011;10200;49.232;9.222;2023-05-23T09:22:46;9.65;;;7.82;;
20080;SDS011;10200;49.232;9.222;2023-05-23T09:25:12;10.23;;;7.40;;
20080;SDS011;10200;49.232;9.222;2023-05-23T09:27:38;9.68;;;7.68;;
20080;SDS011;10200;49.232;9.222;2023-05-23T09:30:08;9.80;;;8.07;;
20080;SDS011;10200;49.232;9.222;2023-05-23T09:32:36;11.60;;;8.07;;
20080;SDS011;10200;49.232;9.222;2023-05-23T09:35:03;8.18;;;7.38;;
20080;SDS011;10200;49.232;9.222;2023-05-23T09:37:41;9.25;;;7.75;;
20080;SDS011;10200;49.232;9.222;2023-05-23T09:40:10;11.45;;;7.88;;
20080;SDS011;10200;49.232;9.222;2023-05-23T09:42:44;9.23;;;7.05;;
20080;SDS011;10200;49.232;9.222;2023-05-23T09:45:15;8.73;;;6.95;;
20080;SDS011;10200;49.232;9.222;2023-05-23T09:47:50;7.93;;;6.53;;
20080;SDS011;10200;49.232;9.222;2023-05-23T09:50:17;6.95;;;6.22;;
20080;SDS011;10200;49.232;9.222;2023-05-23T09:52:43;7.10;;;6.40;;
20080;SDS011;10200;49.232;9.222;2023-05-23T09:55:09;9.02;;;6.68;;
20080;SDS011;10200;49.232;9.222;2023-05-23T09:57:35;6.40;;;5.60;;
20080;SDS011;10200;49.232;9.222;2023-05-23T10:00:04;7.35;;;5.80;;
20080;SDS011;10200;49.232;9.222;2023-05-23T10:06:01;6.15;;;5.20;;
20080;SDS011;10200;49.232;9.222;2023-05-23T10:08:15;7.28;;;5.50;;
20080;SDS011;10200;49.232;9.222;2023-05-23T10:13:18;5.47;;;4.63;;
20080;SDS011;10200;49.232;9.222;2023-05-23T10:15:45;6.10;;;4.63;;
20080;SDS011;10200;49.232;9.222;2023-05-23T10:18:15;5.35;;;4.07;;
20080;SDS011;10200;49.232;9.222;2023-05-23T10:20:46;5.25;;;4.38;;
20080;SDS011;10200;49.232;9.222;2023-05-23T10:23:15;5.22;;;4.47;;
20080;SDS011;10200;49.232;9.222;2023-05-23T10:25:41;4.47;;;4.07;;
20080;SDS011;10200;49.232;9.222;2023-05-23T10:28:08;6.28;;;4.13;;
20080;SDS011;10200;49.232;9.222;2023-05-23T10:30:34;4.30;;;3.90;;
20080;SDS011;10200;49.232;9.222;2023-05-23T10:33:00;6.60;;;3.88;;
20080;SDS011;10200;49.232;9.222;2023-05-23T10:35:39;5.90;;;3.65;;
20080;SDS011;10200;49.232;9.222;2023-05-23T10:41:08;4.15;;;3.75;;
20080;SDS011;10200;49.232;9.222;2023-05-23T10:44:03;3.88;;;3.47;;
20080;SDS011;10200;49.232;9.222;2023-05-23T10:46:50;4.18;;;3.78;;
20080;SDS011;10200;49.232;9.222;2023-05-23T10:52:09;3.90;;;3.55;;
20080;SDS011;10200;49.232;9.222;2023-05-23T10:54:44;4.18;;;3.78;;
20080;SDS011;10200;49.232;9.222;2023-05-23T10:57:15;4.18;;;3.78;;
20080;SDS011;10200;49.232;9.222;2023-05-23T10:59:47;5.30;;;4.15;;
20080;SDS011;10200;49.232;9.222;2023-05-23T11:02:15;4.50;;;3.95;;
20080;SDS011;10200;49.232;9.222;2023-05-23T11:04:43;3.85;;;3.20;;
20080;SDS011;10200;49.232;9.222;2023-05-23T11:07:28;5.10;;;4.32;;
20080;SDS011;10200;49.232;9.222;2023-05-23T11:10:16;5.47;;;4.55;;
20080;SDS011;10200;49.232;9.222;2023-05-23T11:12:43;8.00;;;4.38;;
20080;SDS011;10200;49.232;9.222;2023-05-23T11:15:19;6.18;;;4.97;;
20080;SDS011;10200;49.232;9.222;2023-05-23T11:17:51;5.57;;;4.25;;
20080;SDS011;10200;49.232;9.222;2023-05-23T11:20:18;5.72;;;4.47;;
20080;SDS011;10200;49.232;9.222;2023-05-23T11:22:59;5.97;;;4.53;;
20080;SDS011;10200;49.232;9.222;2023-05-23T11:28:15;5.15;;;4.00;;
20080;SDS011;10200;49.232;9.222;2023-05-23T11:30:42;6.55;;;3.67;;
20080;SDS011;10200;49.232;9.222;2023-05-23T11:33:09;5.72;;;4.57;;
20080;SDS011;10200;49.232;9.222;2023-05-23T11:35:44;7.47;;;4.35;;
20080;SDS011;10200;49.232;9.222;2023-05-23T11:38:12;4.28;;;3.88;;
20080;SDS011;10200;49.232;9.222;2023-05-23T11:40:39;4.60;;;4.20;;
20080;SDS011;10200;49.232;9.222;2023-05-23T11:43:07;4.63;;;3.85;;
20080;SDS011;10200;49.232;9.222;2023-05-23T11:45:34;7.03;;;4.57;;
20080;SDS011;10200;49.232;9.222;2023-05-23T11:48:07;4.72;;;3.50;;
20080;SDS011;10200;49.232;9.222;2023-05-23T11:53:19;5.38;;;4.63;;
20080;SDS011;10200;49.232;9.222;2023-05-23T11:55:50;5.50;;;4.35;;
20080;SDS011;10200;49.232;9.222;2023-05-23T11:58:20;4.00;;;3.60;;
20080;SDS011;10200;49.232;9.222;2023-05-23T12:00:46;4.50;;;4.10;;
20080;SDS011;10200;49.232;9.222;2023-05-23T12:03:13;3.55;;;3.25;;
20080;SDS011;10200;49.232;9.222;2023-05-23T12:05:41;4.10;;;3.53;;
20080;SDS011;10200;49.232;9.222;2023-05-23T12:08:09;5.80;;;3.22;;
20080;SDS011;10200;49.232;9.222;2023-05-23T12:10:36;3.10;;;2.17;;
20080;SDS011;10200;49.232;9.222;2023-05-23T12:13:12;2.63;;;2.42;;
20080;SDS011;10200;49.232;9.222;2023-05-23T12:15:38;3.85;;;2.70;;
20080;SDS011;10200;49.232;9.222;2023-05-23T12:18:03;3.05;;;2.80;;
20080;SDS011;10200;49.232;9.222;2023-05-23T12:20:29;2.92;;;2.63;;
20080;SDS011;10200;49.232;9.222;2023-05-23T12:22:58;2.67;;;2.47;;
20080;SDS011;10200;49.232;9.222;2023-05-23T12:25:28;3.25;;;2.47;;
20080;SDS011;10200;49.232;9.222;2023-05-23T12:28:01;3.13;;;2.83;;
20080;SDS011;10200;49.232;9.222;2023-05-23T12:30:27;2.72;;;2.30;;
20080;SDS011;10200;49.232;9.222;2023-05-23T12:32:53;2.70;;;2.50;;
20080;SDS011;10200;49.232;9.222;2023-05-23T12:35:19;2.70;;;2.50;;
20080;SDS011;10200;49.232;9.222;2023-05-23T12:37:45;3.35;;;2.83;;
20080;SDS011;10200;49.232;9.222;2023-05-23T12:40:17;2.80;;;2.60;;
20080;SDS011;10200;49.232;9.222;2023-05-23T12:42:50;3.08;;;2.78;;
20080;SDS011;10200;49.232;9.222;2023-05-23T12:45:22;2.78;;;2.22;;
20080;SDS011;10200;49.232;9.222;2023-05-23T12:47:54;4.20;;;2.25;;
20080;SDS011;10200;49.232;9.222;2023-05-23T12:50:20;2.45;;;2.25;;
20080;SDS011;10200;49.232;9.222;2023-05-23T12:52:46;4.05;;;2.40;;
20080;SDS011;10200;49.232;9.222;2023-05-23T12:55:12;4.15;;;2.50;;
20080;SDS011;10200;49.232;9.222;2023-05-23T12:57:43;2.88;;;2.63;;
20080;SDS011;10200;49.232;9.222;2023-05-23T13:00:09;2.40;;;2.20;;
20080;SDS011;10200;49.232;9.222;2023-05-23T13:02:35;2.63;;;2.42;;
20080;SDS011;10200;49.232;9.222;2023-05-23T13:05:01;2.50;;;2.30;;
20080;SDS011;10200;49.232;9.222;2023-05-23T13:07:27;2.80;;;2.50;;
20080;SDS011;10200;49.232;9.222;2023-05-23T13:09:53;2.20;;;2.00;;
20080;SDS011;10200;49.232;9.222;2023-05-23T13:12:19;2.67;;;2.47;;
20080;SDS011;10200;49.232;9.222;2023-05-23T13:14:45;2.17;;;1.85;;
20080;SDS011;10200;49.232;9.222;2023-05-23T13:17:10;3.10;;;2.30;;
20080;SDS011;10200;49.232;9.222;2023-05-23T13:19:36;3.42;;;2.92;;
20080;SDS011;10200;49.232;9.222;2023-05-23T13:22:03;2.85;;;2.65;;
20080;SDS011;10200;49.232;9.222;2023-05-23T13:24:30;3.05;;;2.70;;
20080;SDS011;10200;49.232;9.222;2023-05-23T13:26:55;4.03;;;2.17;;
20080;SDS011;10200;49.232;9.222;2023-05-23T13:29:21;3.53;;;2.28;;
20080;SDS011;10200;49.232;9.222;2023-05-23T13:31:47;3.65;;;2.80;;
20080;SDS011;10200;49.232;9.222;2023-05-23T13:34:12;2.50;;;2.30;;
20080;SDS011;10200;49.232;9.222;2023-05-23T13:36:38;2.80;;;2.60;;
20080;SDS011;10200;49.232;9.222;2023-05-23T13:39:03;2.90;;;2.30;;
20080;SDS011;10200;49.232;9.222;2023-05-23T13:41:29;2.50;;;2.30;;
20080;SDS011;10200;49.232;9.222;2023-05-23T13:43:55;5.93;;;2.78;;
20080;SDS011;10200;49.232;9.222;2023-05-23T13:46:20;2.47;;;2.28;;
20080;SDS011;10200;49.232;9.222;2023-05-23T13:48:46;2.15;;;1.95;;
20080;SDS011;10200;49.232;9.222;2023-05-23T13:51:11;2.58;;;2.22;;
20080;SDS011;10200;49.232;9.222;2023-05-23T13:53:37;2.45;;;2.25;;
20080;SDS011;10200;49.232;9.222;2023-05-23T13:56:03;2.60;;;2.40;;
20080;SDS011;10200;49.232;9.222;2023-05-23T13:58:28;2.72;;;2.40;;
20080;SDS011;10200;49.232;9.222;2023-05-23T14:00:54;6.68;;;2.63;;
20080;SDS011;10200;49.232;9.222;2023-05-23T14:03:19;2.78;;;2.20;;
20080;SDS011;10200;49.232;9.222;2023-05-23T14:05:46;2.50;;;2.30;;
20080;SDS011;10200;49.232;9.222;2023-05-23T14:08:12;3.03;;;2.72;;
20080;SDS011;10200;49.232;9.222;2023-05-23T14:10:38;3.58;;;2.20;;
20080;SDS011;10200;49.232;9.222;2023-05-23T14:13:05;2.58;;;2.38;;
20080;SDS011;10200;49.232;9.222;2023-05-23T14:15:31;2.50;;;2.30;;
20080;SDS011;10200;49.232;9.222;2023-05-23T14:17:57;3.00;;;2.63;;
20080;SDS011;10200;49.232;9.222;2023-05-23T14:20:23;2.83;;;2.10;;
20080;SDS011;10200;49.232;9.222;2023-05-23T14:22:49;1.90;;;1.70;;
20080;SDS011;10200;49.232;9.222;2023-05-23T14:25:15;2.17;;;1.90;;
20080;SDS011;10200;49.232;9.222;2023-05-23T14:27:41;2.55;;;2.08;;
20080;SDS011;10200;49.232;9.222;2023-05-23T14:30:08;3.20;;;1.95;;
20080;SDS011;10200;49.232;9.222;2023-05-23T14:32:34;2.92;;;2.20;;
20080;SDS011;10200;49.232;9.222;2023-05-23T14:35:03;2.38;;;2.15;;
20080;SDS011;10200;49.232;9.222;2023-05-23T14:37:30;2.72;;;2.15;;
20080;SDS011;10200;49.232;9.222;2023-05-23T14:39:55;2.55;;;2.17;;
20080;SDS011;10200;49.232;9.222;2023-05-23T14:42:21;2.50;;;2.30;;
20080;SDS011;10200;49.232;9.222;2023-05-23T14:44:47;1.90;;;1.80;;
20080;SDS011;10200;49.232;9.222;2023-05-23T14:47:12;2.00;;;1.80;;
20080;SDS011;10200;49.232;9.222;2023-05-23T14:49:38;2.25;;;1.90;;
20080;SDS011;10200;49.232;9.222;2023-05-23T14:52:03;2.50;;;2.30;;
20080;SDS011;10200;49.232;9.222;2023-05-23T14:54:29;4.32;;;2.20;;
20080;SDS011;10200;49.232;9.222;2023-05-23T14:56:55;1.80;;;1.58;;
20080;SDS011;10200;49.232;9.222;2023-05-23T14:59:21;2.22;;;1.80;;
20080;SDS011;10200;49.232;9.222;2023-05-23T15:01:46;4.63;;;2.20;;